sensor_id;sensor_type;location;lat;lon;timestamp;pressure;altitude;pressure_sealevel;temperature;humidity
20696;BME280;10507;52.754;13.040;2023-04-15T00:01:52;101147.09;;;7.94;100.00
20696;BME280;10507;52.754;13.040;2023-04-15T00:04:20;101131.19;;;7.93;100.00
20696;BME280;10507;52.754;13.040;2023-04-15T00:06:51;101109.94;;;7.91;100.00
20696;BME280;10507;52.754;13.040;2023-04-15T00:09:21;101111.72;;;7.92;100.00
20696;BME280;10507;52.754;13.040;2023-04-15T00:11:49;101110.78;;;7.93;100.00
20696;BME280;10507;52.754;13.040;2023-04-15T00:14:18;101092.28;;;7.90;100.00
20696;BME280;10507;52.754;13.040;2023-04-15T00:16:45;101078.97;;;7.90;100.00
20696;BME280;10507;52.754;13.040;2023-04-15T00:19:15;101077.19;;;7.90;100.00
20696;BME280;10507;52.754;13.040;2023-04-15T00:21:43;101066.56;;;7.90;100.00
20696;BME280;10507;52.754;13.040;2023-04-15T00:24:11;101070.03;;;7.93;100.00
20696;BME280;10507;52.754;13.040;2023-04-15T00:26:40;101059.41;;;7.93;100.00
20696;BME280;10507;52.754;13.040;2023-04-15T00:29:08;101046.94;;;7.95;100.00
20696;BME280;10507;52.754;13.040;2023-04-15T00:31:36;101042.47;;;7.95;100.00
20696;BME280;10507;52.754;13.040;2023-04-15T00:34:03;101024.88;;;7.91;100.00
20696;BME280;10507;52.754;13.040;2023-04-15T00:36:31;101009.91;;;7.88;100.00
20696;BME280;10507;52.754;13.040;2023-04-15T00:39:00;101030.09;;;7.94;100.00
20696;BME280;10507;52.754;13.040;2023-04-15T00:41:28;101009.03;;;7.88;100.00
20696;BME280;10507;52.754;13.040;2023-04-15T00:43:58;101018.81;;;7.87;100.00
20696;BME280;10507;52.754;13.040;2023-04-15T00:46:28;101015.22;;;7.88;100.00
20696;BME280;10507;52.754;13.040;2023-04-15T00:48:57;101017.94;;;7.87;100.00
20696;BME280;10507;52.754;13.040;2023-04-15T00:51:25;101017.88;;;7.88;100.00
20696;BME280;10507;52.754;13.040;2023-04-15T00:53:53;101018.81;;;7.87;100.00
20696;BME280;10507;52.754;13.040;2023-04-15T00:56:22;101018.81;;;7.87;100.00
20696;BME280;10507;52.754;13.040;2023-04-15T00:58:50;101011.69;;;7.88;100.00
20696;BME280;10507;52.754;13.040;2023-04-15T01:01:21;101008.19;;;7.87;100.00
20696;BME280;10507;52.754;13.040;2023-04-15T01:03:49;101010.84;;;7.87;100.00
20696;BME280;10507;52.754;13.040;2023-04-15T01:06:17;100996.72;;;7.85;100.00
20696;BME280;10507;52.754;13.040;2023-04-15T01:08:45;101010.00;;;7.85;100.00
20696;BME280;10507;52.754;13.040;2023-04-15T01:11:13;101012.66;;;7.85;100.00
20696;BME280;10507;52.754;13.040;2023-04-15T01:13:42;100989.81;;;7.80;100.00
20696;BME280;10507;52.754;13.040;2023-04-15T01:16:10;100998.59;;;7.82;100.00
20696;BME280;10507;52.754;13.040;2023-04-15T01:18:40;101000.28;;;7.84;100.00
20696;BME280;10507;52.754;13.040;2023-04-15T01:21:08;100989.72;;;7.83;100.00
20696;BME280;10507;52.754;13.040;2023-04-15T01:23:37;100993.28;;;7.82;100.00
20696;BME280;10507;52.754;13.040;2023-04-15T01:26:06;100987.09;;;7.81;100.00
20696;BME280;10507;52.754;13.040;2023-04-15T01:28:35;100996.88;;;7.81;100.00
20696;BME280;10507;52.754;13.040;2023-04-15T01:31:05;100987.09;;;7.81;100.00
20696;BME280;10507;52.754;13.040;2023-04-15T01:33:33;100995.03;;;7.83;100.00
20696;BME280;10507;52.754;13.040;2023-04-15T01:36:02;100992.38;;;7.83;100.00
20696;BME280;10507;52.754;13.040;2023-04-15T01:38:31;100990.59;;;7.83;100.00
20696;BME280;10507;52.754;13.040;2023-04-15T01:40:59;100980.84;;;7.82;100.00
20696;BME280;10507;52.754;13.040;2023-04-15T01:43:28;100980.84;;;7.82;100.00
20696;BME280;10507;52.754;13.040;2023-04-15T01:45:56;100982.66;;;7.82;100.00
20696;BME280;10507;52.754;13.040;2023-04-15T01:48:23;100975.53;;;7.82;100.00
20696;BME280;10507;52.754;13.040;2023-04-15T01:50:53;100972.88;;;7.82;100.00
20696;BME280;10507;52.754;13.040;2023-04-15T01:53:23;100987.00;;;7.84;100.00
20696;BME280;10507;52.754;13.040;2023-04-15T01:55:51;100979.00;;;7.84;100.00
20696;BME280;10507;52.754;13.040;2023-04-15T01:58:19;100978.19;;;7.82;100.00
20696;BME280;10507;52.754;13.040;2023-04-15T02:00:49;100984.28;;;7.86;100.00
20696;BME280;10507;52.754;13.040;2023-04-15T02:03:17;100971.94;;;7.85;100.00
20696;BME280;10507;52.754;13.040;2023-04-15T02:05:45;100977.25;;;7.85;100.00
20696;BME280;10507;52.754;13.040;2023-04-15T02:08:13;100984.19;;;7.89;100.00
20696;BME280;10507;52.754;13.040;2023-04-15T02:10:41;100977.13;;;7.88;100.00
20696;BME280;10507;52.754;13.040;2023-04-15T02:13:08;100970.88;;;7.89;100.00
20696;BME280;10507;52.754;13.040;2023-04-15T02:15:37;100970.03;;;7.88;100.00
20696;BME280;10507;52.754;13.040;2023-04-15T02:18:06;100951.41;;;7.88;100.00
20696;BME280;10507;52.754;13.040;2023-04-15T02:20:34;100939.06;;;7.87;100.00
20696;BME280;10507;52.754;13.040;2023-04-15T02:23:03;100939.09;;;7.86;100.00
20696;BME280;10507;52.754;13.040;2023-04-15T02:25:32;100945.22;;;7.88;100.00
20696;BME280;10507;52.754;13.040;2023-04-15T02:28:00;100947.03;;;7.87;100.00
20696;BME280;10507;52.754;13.040;2023-04-15T02:30:28;100950.59;;;7.86;100.00
20696;BME280;10507;52.754;13.040;2023-04-15T02:32:56;100947.03;;;7.87;100.00
20696;BME280;10507;52.754;13.040;2023-04-15T02:35:25;100951.41;;;7.88;100.00
20696;BME280;10507;52.754;13.040;2023-04-15T02:37:53;100953.25;;;7.86;100.00
20696;BME280;10507;52.754;13.040;2023-04-15T02:40:21;100960.31;;;7.87;100.00
20696;BME280;10507;52.754;13.040;2023-04-15T02:42:49;100972.59;;;7.91;100.00
20696;BME280;10507;52.754;13.040;2023-04-15T02:45:17;100971.78;;;7.89;100.00
20696;BME280;10507;52.754;13.040;2023-04-15T02:47:49;100978.81;;;7.90;100.00
20696;BME280;10507;52.754;13.040;2023-04-15T02:50:17;100992.81;;;7.96;100.00
20696;BME280;10507;52.754;13.040;2023-04-15T02:52:46;100987.50;;;7.96;100.00
20696;BME280;10507;52.754;13.040;2023-04-15T02:55:13;100991.06;;;7.96;100.00
20696;BME280;10507;52.754;13.040;2023-04-15T02:57:43;100970.63;;;7.97;100.00
20696;BME280;10507;52.754;13.040;2023-04-15T03:00:12;100963.66;;;7.94;100.00
20696;BME280;10507;52.754;13.040;2023-04-15T03:02:40;100968.03;;;7.95;100.00
20696;BME280;10507;52.754;13.040;2023-04-15T03:05:11;100977.81;;;7.95;100.00
20696;BME280;10507;52.754;13.040;2023-04-15T03:07:39;100981.28;;;7.97;100.00
20696;BME280;10507;52.754;13.040;2023-04-15T03:10:09;100960.06;;;7.95;100.00
20696;BME280;10507;52.754;13.040;2023-04-15T03:12:37;100961.97;;;7.91;100.00
20696;BME280;10507;52.754;13.040;2023-04-15T03:15:07;100977.81;;;7.95;100.00
20696;BME280;10507;52.754;13.040;2023-04-15T03:17:35;100966.47;;;7.89;100.00
20696;BME280;10507;52.754;13.040;2023-04-15T03:20:04;100980.50;;;7.93;100.00
20696;BME280;10507;52.754;13.040;2023-04-15T03:22:32;100997.31;;;7.94;100.00
20696;BME280;10507;52.754;13.040;2023-04-15T03:25:00;100995.59;;;7.93;100.00
20696;BME280;10507;52.754;13.040;2023-04-15T03:27:30;101002.63;;;7.94;100.00
20696;BME280;10507;52.754;13.040;2023-04-15T03:29:57;101012.38;;;7.95;100.00
20696;BME280;10507;52.754;13.040;2023-04-15T03:32:25;101020.34;;;7.95;100.00
20696;BME280;10507;52.754;13.040;2023-04-15T03:34:53;101039.78;;;7.97;100.00
20696;BME280;10507;52.754;13.040;2023-04-15T03:37:21;101045.06;;;7.98;100.00
20696;BME280;10507;52.754;13.040;2023-04-15T03:39:49;101047.63;;;8.00;100.00
20696;BME280;10507;52.754;13.040;2023-04-15T03:42:17;101037.94;;;7.99;100.00
20696;BME280;10507;52.754;13.040;2023-04-15T03:44:46;101051.13;;;8.02;100.00
20696;BME280;10507;52.754;13.040;2023-04-15T03:47:14;101052.91;;;8.01;100.00
20696;BME280;10507;52.754;13.040;2023-04-15T03:49:41;101046.72;;;8.01;100.00
20696;BME280;10507;52.754;13.040;2023-04-15T03:52:09;101050.25;;;8.01;100.00
20696;BME280;10507;52.754;13.040;2023-04-15T03:54:37;101060.09;;;7.98;100.00
20696;BME280;10507;52.754;13.040;2023-04-15T03:57:05;101076.81;;;8.03;100.00
20696;BME280;10507;52.754;13.040;2023-04-15T03:59:33;101082.06;;;8.04;100.00
20696;BME280;10507;52.754;13.040;2023-04-15T04:02:02;101073.22;;;8.04;100.00
20696;BME280;10507;52.754;13.040;2023-04-15T04:04:30;101080.25;;;8.05;100.00
20696;BME280;10507;52.754;13.040;2023-04-15T04:06:58;101067.84;;;8.05;100.00
20696;BME280;10507;52.754;13.040;2023-04-15T04:09:26;101072.22;;;8.06;100.00
20696;BME280;10507;52.754;13.040;2023-04-15T04:11:54;101064.25;;;8.06;100.00
20696;BME280;10507;52.754;13.040;2023-04-15T04:14:22;101060.75;;;8.06;100.00
20696;BME280;10507;52.754;13.040;2023-04-15T04:16:55;101066.06;;;8.06;100.00
20696;BME280;10507;52.754;13.040;2023-04-15T04:19:24;101068.69;;;8.07;100.00
20696;BME280;10507;52.754;13.040;2023-04-15T04:21:52;101059.75;;;8.08;100.00
20696;BME280;10507;52.754;13.040;2023-04-15T04:24:20;101057.09;;;8.08;100.00
20696;BME280;10507;52.754;13.040;2023-04-15T04:26:48;101053.53;;;8.09;100.00
20696;BME280;10507;52.754;13.040;2023-04-15T04:29:15;101060.59;;;8.10;100.00
20696;BME280;10507;52.754;13.040;2023-04-15T04:31:43;101053.47;;;8.11;100.00
20696;BME280;10507;52.754;13.040;2023-04-15T04:34:12;101057.88;;;8.12;100.00
20696;BME280;10507;52.754;13.040;2023-04-15T04:36:41;101065.59;;;8.20;100.00
20696;BME280;10507;52.754;13.040;2023-04-15T04:39:09;101039.97;;;8.17;100.00
20696;BME280;10507;52.754;13.040;2023-04-15T04:41:37;101047.53;;;8.29;100.00
20696;BME280;10507;52.754;13.040;2023-04-15T04:44:05;101009.50;;;8.27;100.00
20696;BME280;10507;52.754;13.040;2023-04-15T04:46:33;100989.06;;;8.28;100.00
20696;BME280;10507;52.754;13.040;2023-04-15T04:49:01;100978.31;;;8.31;100.00
20696;BME280;10507;52.754;13.040;2023-04-15T04:51:29;100971.09;;;8.35;100.00
20696;BME280;10507;52.754;13.040;2023-04-15T04:53:59;100937.53;;;8.30;100.00
20696;BME280;10507;52.754;13.040;2023-04-15T04:56:29;100917.16;;;8.29;100.00
20696;BME280;10507;52.754;13.040;2023-04-15T04:58:56;100911.75;;;8.32;100.00
20696;BME280;10507;52.754;13.040;2023-04-15T05:01:25;100899.38;;;8.31;100.00
20696;BME280;10507;52.754;13.040;2023-04-15T05:03:53;100896.69;;;8.31;100.00
20696;BME280;10507;52.754;13.040;2023-04-15T05:06:21;100899.19;;;8.36;100.00
20696;BME280;10507;52.754;13.040;2023-04-15T05:08:49;100897.31;;;8.40;100.00
20696;BME280;10507;52.754;13.040;2023-04-15T05:11:18;100876.06;;;8.38;100.00
20696;BME280;10507;52.754;13.040;2023-04-15T05:13:46;100858.34;;;8.39;100.00
20696;BME280;10507;52.754;13.040;2023-04-15T05:16:14;100851.22;;;8.39;100.00
20696;BME280;10507;52.754;13.040;2023-04-15T05:18:42;100845.78;;;8.42;100.00
20696;BME280;10507;52.754;13.040;2023-04-15T05:21:11;100841.25;;;8.46;100.00
20696;BME280;10507;52.754;13.040;2023-04-15T05:23:39;100825.38;;;8.43;100.00
20696;BME280;10507;52.754;13.040;2023-04-15T05:26:08;100823.53;;;8.45;100.00
20696;BME280;10507;52.754;13.040;2023-04-15T05:28:37;100827.69;;;8.52;100.00
20696;BME280;10507;52.754;13.040;2023-04-15T05:31:05;100802.00;;;8.51;100.00
20696;BME280;10507;52.754;13.040;2023-04-15T05:33:33;100810.56;;;8.59;100.00
20696;BME280;10507;52.754;13.040;2023-04-15T05:36:01;100782.09;;;8.61;100.00
20696;BME280;10507;52.754;13.040;2023-04-15T05:38:29;100774.03;;;8.63;100.00
20696;BME280;10507;52.754;13.040;2023-04-15T05:40:56;100774.41;;;8.76;100.00
20696;BME280;10507;52.754;13.040;2023-04-15T05:43:24;100764.34;;;8.84;100.00
20696;BME280;10507;52.754;13.040;2023-04-15T05:45:53;100772.34;;;9.04;100.00
20696;BME280;10507;52.754;13.040;2023-04-15T05:48:22;100746.94;;;9.18;100.00
20696;BME280;10507;52.754;13.040;2023-04-15T05:50:49;100719.84;;;9.28;100.00
20696;BME280;10507;52.754;13.040;2023-04-15T05:53:17;100677.50;;;9.41;100.00
20696;BME280;10507;52.754;13.040;2023-04-15T05:55:46;100604.28;;;9.31;100.00
20696;BME280;10507;52.754;13.040;2023-04-15T05:58:13;100610.69;;;9.46;100.00
20696;BME280;10507;52.754;13.040;2023-04-15T06:00:41;100582.63;;;9.57;100.00
20696;BME280;10507;52.754;13.040;2023-04-15T06:03:11;100519.06;;;9.48;100.00
20696;BME280;10507;52.754;13.040;2023-04-15T06:05:39;100482.56;;;9.31;100.00
20696;BME280;10507;52.754;13.040;2023-04-15T06:08:07;100481.56;;;9.34;100.00
20696;BME280;10507;52.754;13.040;2023-04-15T06:10:35;100496.19;;;9.44;100.00
20696;BME280;10507;52.754;13.040;2023-04-15T06:13:03;100504.66;;;9.52;100.00
20696;BME280;10507;52.754;13.040;2023-04-15T06:15:31;100448.00;;;9.49;100.00
20696;BME280;10507;52.754;13.040;2023-04-15T06:17:59;100443.59;;;9.48;100.00
20696;BME280;10507;52.754;13.040;2023-04-15T06:20:28;100458.25;;;9.56;100.00
20696;BME280;10507;52.754;13.040;2023-04-15T06:22:56;100433.91;;;9.64;100.00
20696;BME280;10507;52.754;13.040;2023-04-15T06:25:24;100457.81;;;9.66;100.00
20696;BME280;10507;52.754;13.040;2023-04-15T06:27:52;100451.94;;;9.76;100.00
20696;BME280;10507;52.754;13.040;2023-04-15T06:30:20;100475.50;;;10.03;100.00
20696;BME280;10507;52.754;13.040;2023-04-15T06:32:49;100434.78;;;9.99;100.00
20696;BME280;10507;52.754;13.040;2023-04-15T06:35:18;100442.78;;;10.17;100.00
20696;BME280;10507;52.754;13.040;2023-04-15T06:37:47;100394.94;;;10.14;100.00
20696;BME280;10507;52.754;13.040;2023-04-15T06:40:15;100401.34;;;10.27;100.00
20696;BME280;10507;52.754;13.040;2023-04-15T06:42:43;100401.63;;;10.56;100.00
20696;BME280;10507;52.754;13.040;2023-04-15T06:45:11;100407.88;;;10.72;100.00
20696;BME280;10507;52.754;13.040;2023-04-15T06:47:38;100452.50;;;10.86;100.00
20696;BME280;10507;52.754;13.040;2023-04-15T06:50:08;100366.34;;;10.82;100.00
20696;BME280;10507;52.754;13.040;2023-04-15T06:52:37;100414.47;;;11.14;100.00
20696;BME280;10507;52.754;13.040;2023-04-15T06:55:07;100444.16;;;11.72;100.00
20696;BME280;10507;52.754;13.040;2023-04-15T06:57:35;100467.00;;;12.23;100.00
20696;BME280;10507;52.754;13.040;2023-04-15T07:00:03;100383.94;;;12.39;100.00
20696;BME280;10507;52.754;13.040;2023-04-15T07:02:32;100413.28;;;12.84;98.80
20696;BME280;10507;52.754;13.040;2023-04-15T07:05:01;100217.38;;;12.76;97.06
20696;BME280;10507;52.754;13.040;2023-04-15T07:07:29;100262.25;;;12.99;96.35
20696;BME280;10507;52.754;13.040;2023-04-15T07:09:57;100476.06;;;13.64;95.26
20696;BME280;10507;52.754;13.040;2023-04-15T07:12:26;100172.06;;;13.64;92.22
20696;BME280;10507;52.754;13.040;2023-04-15T07:14:54;100183.22;;;13.70;91.67
20696;BME280;10507;52.754;13.040;2023-04-15T07:17:22;100068.00;;;13.56;91.24
20696;BME280;10507;52.754;13.040;2023-04-15T07:19:50;100081.63;;;13.53;91.55
20696;BME280;10507;52.754;13.040;2023-04-15T07:22:18;100104.78;;;13.54;92.00
20696;BME280;10507;52.754;13.040;2023-04-15T07:24:45;100193.94;;;13.83;91.35
20696;BME280;10507;52.754;13.040;2023-04-15T07:27:13;100173.88;;;14.26;89.95
20696;BME280;10507;52.754;13.040;2023-04-15T07:29:43;99941.03;;;13.68;89.90
20696;BME280;10507;52.754;13.040;2023-04-15T07:32:11;99759.19;;;13.25;89.68
20696;BME280;10507;52.754;13.040;2023-04-15T07:34:38;99763.28;;;12.20;93.71
20696;BME280;10507;52.754;13.040;2023-04-15T07:37:06;99911.25;;;12.22;95.26
20696;BME280;10507;52.754;13.040;2023-04-15T07:39:34;99909.81;;;11.77;97.45
20696;BME280;10507;52.754;13.040;2023-04-15T07:42:02;100013.50;;;11.59;99.14
20696;BME280;10507;52.754;13.040;2023-04-15T07:44:30;100037.09;;;11.67;99.12
20696;BME280;10507;52.754;13.040;2023-04-15T07:47:01;100080.44;;;11.72;99.57
20696;BME280;10507;52.754;13.040;2023-04-15T07:49:29;100040.22;;;11.59;99.55
20696;BME280;10507;52.754;13.040;2023-04-15T07:51:57;100070.06;;;11.53;100.00
20696;BME280;10507;52.754;13.040;2023-04-15T07:54:25;100163.34;;;11.57;100.00
20696;BME280;10507;52.754;13.040;2023-04-15T07:56:54;100155.31;;;11.57;100.00
20696;BME280;10507;52.754;13.040;2023-04-15T07:59:22;100162.47;;;11.71;100.00
20696;BME280;10507;52.754;13.040;2023-04-15T08:01:50;100100.22;;;11.55;100.00
20696;BME280;10507;52.754;13.040;2023-04-15T08:04:20;100109.09;;;11.55;100.00
20696;BME280;10507;52.754;13.040;2023-04-15T08:06:48;100083.13;;;11.43;100.00
20696;BME280;10507;52.754;13.040;2023-04-15T08:09:16;100101.94;;;11.41;100.00
20696;BME280;10507;52.754;13.040;2023-04-15T08:11:44;100036.56;;;11.18;100.00
20696;BME280;10507;52.754;13.040;2023-04-15T08:14:12;100090.38;;;11.12;100.00
20696;BME280;10507;52.754;13.040;2023-04-15T08:16:39;100129.91;;;11.21;100.00
20696;BME280;10507;52.754;13.040;2023-04-15T08:19:07;100182.88;;;11.29;100.00
20696;BME280;10507;52.754;13.040;2023-04-15T08:21:37;100238.84;;;11.61;100.00
20696;BME280;10507;52.754;13.040;2023-04-15T08:24:06;100234.03;;;11.82;100.00
20696;BME280;10507;52.754;13.040;2023-04-15T08:26:33;100188.72;;;11.79;100.00
20696;BME280;10507;52.754;13.040;2023-04-15T08:29:01;100139.81;;;11.77;100.00
20696;BME280;10507;52.754;13.040;2023-04-15T08:31:29;100200.53;;;11.91;100.00
20696;BME280;10507;52.754;13.040;2023-04-15T08:33:57;100145.97;;;11.93;100.00
20696;BME280;10507;52.754;13.040;2023-04-15T08:36:25;100092.81;;;11.87;100.00
20696;BME280;10507;52.754;13.040;2023-04-15T08:38:55;100039.72;;;11.81;100.00
20696;BME280;10507;52.754;13.040;2023-04-15T08:41:24;100027.84;;;11.58;100.00
20696;BME280;10507;52.754;13.040;2023-04-15T08:43:55;100039.78;;;11.38;100.00
20696;BME280;10507;52.754;13.040;2023-04-15T08:46:23;100049.94;;;11.33;100.00
20696;BME280;10507;52.754;13.040;2023-04-15T08:48:55;100084.25;;;11.39;100.00
20696;BME280;10507;52.754;13.040;2023-04-15T08:51:24;100091.63;;;11.35;100.00
20696;BME280;10507;52.754;13.040;2023-04-15T08:53:52;100077.41;;;11.35;100.00
20696;BME280;10507;52.754;13.040;2023-04-15T08:56:24;100133.06;;;11.42;100.00
20696;BME280;10507;52.754;13.040;2023-04-15T08:58:52;100141.56;;;11.49;100.00
20696;BME280;10507;52.754;13.040;2023-04-15T09:01:21;100142.88;;;11.56;100.00
20696;BME280;10507;52.754;13.040;2023-04-15T09:03:49;100162.38;;;11.58;100.00
20696;BME280;10507;52.754;13.040;2023-04-15T09:06:19;100091.31;;;11.54;100.00
20696;BME280;10507;52.754;13.040;2023-04-15T09:08:47;100097.25;;;11.45;100.00
20696;BME280;10507;52.754;13.040;2023-04-15T09:11:15;100073.47;;;11.40;100.00
20696;BME280;10507;52.754;13.040;2023-04-15T09:13:47;100102.44;;;11.48;100.00
20696;BME280;10507;52.754;13.040;2023-04-15T09:16:15;100112.06;;;11.51;100.00
20696;BME280;10507;52.754;13.040;2023-04-15T09:18:44;100134.22;;;11.53;100.00
20696;BME280;10507;52.754;13.040;2023-04-15T09:21:13;100133.53;;;11.63;100.00
20696;BME280;10507;52.754;13.040;2023-04-15T09:23:55;100122.75;;;11.65;100.00
20696;BME280;10507;52.754;13.040;2023-04-15T09:26:31;100064.59;;;11.54;100.00
20696;BME280;10507;52.754;13.040;2023-04-15T09:29:05;100117.31;;;11.67;100.00
20696;BME280;10507;52.754;13.040;2023-04-15T09:31:36;100053.59;;;11.59;100.00
20696;BME280;10507;52.754;13.040;2023-04-15T09:34:04;100039.28;;;11.60;100.00
20696;BME280;10507;52.754;13.040;2023-04-15T09:36:50;100070.41;;;11.61;100.00
20696;BME280;10507;52.754;13.040;2023-04-15T09:39:19;100129.03;;;11.78;100.00
20696;BME280;10507;52.754;13.040;2023-04-15T09:41:47;100087.28;;;11.76;100.00
20696;BME280;10507;52.754;13.040;2023-04-15T09:44:31;100065.81;;;11.77;100.00
20696;BME280;10507;52.754;13.040;2023-04-15T09:46:59;100094.56;;;11.88;100.00
20696;BME280;10507;52.754;13.040;2023-04-15T09:49:27;100013.34;;;11.75;100.00
20696;BME280;10507;52.754;13.040;2023-04-15T09:51:59;100012.31;;;11.77;100.00
20696;BME280;10507;52.754;13.040;2023-04-15T09:54:33;100073.16;;;11.88;100.00
20696;BME280;10507;52.754;13.040;2023-04-15T09:57:05;100020.81;;;11.84;100.00
20696;BME280;10507;52.754;13.040;2023-04-15T09:59:35;100049.06;;;11.88;100.00
20696;BME280;10507;52.754;13.040;2023-04-15T10:02:03;99979.34;;;11.77;100.00
20696;BME280;10507;52.754;13.040;2023-04-15T10:04:35;100035.25;;;11.67;100.00
20696;BME280;10507;52.754;13.040;2023-04-15T10:07:07;100043.34;;;11.80;100.00
20696;BME280;10507;52.754;13.040;2023-04-15T10:09:37;100055.97;;;11.78;100.00
20696;BME280;10507;52.754;13.040;2023-04-15T10:12:05;100112.34;;;11.89;100.00
20696;BME280;10507;52.754;13.040;2023-04-15T10:14:35;100030.16;;;11.77;100.00
20696;BME280;10507;52.754;13.040;2023-04-15T10:17:05;100035.63;;;11.75;100.00
20696;BME280;10507;52.754;13.040;2023-04-15T10:19:35;100032.44;;;11.83;100.00
20696;BME280;10507;52.754;13.040;2023-04-15T10:22:04;99967.72;;;11.78;99.76
20696;BME280;10507;52.754;13.040;2023-04-15T10:24:32;100016.31;;;11.84;100.00
20696;BME280;10507;52.754;13.040;2023-04-15T10:27:02;100004.63;;;11.85;100.00
20696;BME280;10507;52.754;13.040;2023-04-15T10:29:30;100033.97;;;11.87;100.00
20696;BME280;10507;52.754;13.040;2023-04-15T10:32:00;99969.97;;;11.84;100.00
20696;BME280;10507;52.754;13.040;2023-04-15T10:34:28;100045.16;;;11.94;100.00
20696;BME280;10507;52.754;13.040;2023-04-15T10:37:00;99942.53;;;11.68;100.00
20696;BME280;10507;52.754;13.040;2023-04-15T10:39:39;99940.59;;;11.70;99.70
20696;BME280;10507;52.754;13.040;2023-04-15T10:42:10;99956.88;;;11.67;100.00
20696;BME280;10507;52.754;13.040;2023-04-15T10:44:38;99975.06;;;11.74;100.00
20696;BME280;10507;52.754;13.040;2023-04-15T10:47:11;99987.59;;;11.74;100.00
20696;BME280;10507;52.754;13.040;2023-04-15T10:49:43;99965.94;;;11.64;100.00
20696;BME280;10507;52.754;13.040;2023-04-15T10:52:13;100001.03;;;11.72;100.00
20696;BME280;10507;52.754;13.040;2023-04-15T10:54:41;99970.72;;;11.59;100.00
20696;BME280;10507;52.754;13.040;2023-04-15T10:57:14;99987.94;;;11.55;100.00
20696;BME280;10507;52.754;13.040;2023-04-15T11:00:10;99977.34;;;11.53;100.00
20696;BME280;10507;52.754;13.040;2023-04-15T11:02:45;100019.72;;;11.59;100.00
20696;BME280;10507;52.754;13.040;2023-04-15T11:05:14;100031.91;;;11.63;100.00
20696;BME280;10507;52.754;13.040;2023-04-15T11:07:53;100023.72;;;11.67;100.00
20696;BME280;10507;52.754;13.040;2023-04-15T11:13:28;100024.16;;;11.73;100.00
20696;BME280;10507;52.754;13.040;2023-04-15T11:15:58;100011.66;;;11.74;100.00
20696;BME280;10507;52.754;13.040;2023-04-15T11:18:30;100045.91;;;11.81;100.00
20696;BME280;10507;52.754;13.040;2023-04-15T11:21:00;100075.75;;;11.90;100.00
20696;BME280;10507;52.754;13.040;2023-04-15T11:23:31;100042.97;;;11.86;100.00
20696;BME280;10507;52.754;13.040;2023-04-15T11:26:00;100034.94;;;11.86;100.00
20696;BME280;10507;52.754;13.040;2023-04-15T11:28:30;99970.88;;;11.70;100.00
20696;BME280;10507;52.754;13.040;2023-04-15T11:31:05;99951.81;;;11.62;100.00
20696;BME280;10507;52.754;13.040;2023-04-15T11:33:35;99952.72;;;11.48;100.00
20696;BME280;10507;52.754;13.040;2023-04-15T11:36:03;99999.56;;;11.54;100.00
20696;BME280;10507;52.754;13.040;2023-04-15T11:38:33;99988.97;;;11.52;100.00
20696;BME280;10507;52.754;13.040;2023-04-15T11:41:01;100001.03;;;11.45;100.00
20696;BME280;10507;52.754;13.040;2023-04-15T11:43:30;100064.50;;;11.56;100.00
20696;BME280;10507;52.754;13.040;2023-04-15T11:46:01;100058.31;;;11.55;100.00
20696;BME280;10507;52.754;13.040;2023-04-15T11:48:32;100084.91;;;11.57;100.00
20696;BME280;10507;52.754;13.040;2023-04-15T11:51:03;100103.16;;;11.64;100.00
20696;BME280;10507;52.754;13.040;2023-04-15T11:53:38;100099.94;;;11.59;100.00
20696;BME280;10507;52.754;13.040;2023-04-15T11:56:08;100110.22;;;11.65;100.00
20696;BME280;10507;52.754;13.040;2023-04-15T11:58:37;100094.28;;;11.64;100.00
20696;BME280;10507;52.754;13.040;2023-04-15T12:01:05;100060.84;;;11.57;100.00
20696;BME280;10507;52.754;13.040;2023-04-15T12:03:38;100098.59;;;11.67;100.00
20696;BME280;10507;52.754;13.040;2023-04-15T12:06:15;100110.03;;;11.69;100.00
20696;BME280;10507;52.754;13.040;2023-04-15T12:08:49;100112.13;;;11.63;100.00
20696;BME280;10507;52.754;13.040;2023-04-15T12:11:18;100114.41;;;11.70;100.00
20696;BME280;10507;52.754;13.040;2023-04-15T12:13:47;100137.13;;;11.77;100.00
20696;BME280;10507;52.754;13.040;2023-04-15T12:16:16;100134.75;;;11.86;100.00
20696;BME280;10507;52.754;13.040;2023-04-15T12:18:45;100085.78;;;11.72;100.00
20696;BME280;10507;52.754;13.040;2023-04-15T12:21:17;100118.06;;;11.69;100.00
20696;BME280;10507;52.754;13.040;2023-04-15T12:23:49;100156.28;;;11.71;100.00
20696;BME280;10507;52.754;13.040;2023-04-15T12:26:24;100143.84;;;11.55;100.00
20696;BME280;10507;52.754;13.040;2023-04-15T12:28:53;100180.31;;;11.56;100.00
20696;BME280;10507;52.754;13.040;2023-04-15T12:31:22;100185.00;;;11.53;100.00
20696;BME280;10507;52.754;13.040;2023-04-15T12:33:50;100197.13;;;11.44;100.00
20696;BME280;10507;52.754;13.040;2023-04-15T12:36:22;100226.25;;;11.49;100.00
20696;BME280;10507;52.754;13.040;2023-04-15T12:38:50;100230.53;;;11.51;100.00
20696;BME280;10507;52.754;13.040;2023-04-15T12:41:19;100232.44;;;11.49;100.00
20696;BME280;10507;52.754;13.040;2023-04-15T12:43:47;100234.72;;;11.41;100.00
20696;BME280;10507;52.754;13.040;2023-04-15T12:46:15;100278.09;;;11.46;100.00
20696;BME280;10507;52.754;13.040;2023-04-15T12:48:43;100286.28;;;11.43;100.00